Arlington, Maryland
Current Conditions -  °F | °C
As of 9:54 AM on Thursday 30 Oct 2014 (Local Time) from KBWI Reporting Station
Scattered Clouds Scattered Clouds  
Wind Chill: 52°   Ceiling: Unl
Heat Index: 52°   Visibility: 10mi
Dew Point: 40°   Wind: 7mph
Humidity: 63%   Direction: NA
Pressure: 30.06"   Gusts: NA
Location:  39.3453°N, 76.6832°W
Report Text: KBWI 301354Z VRB06KT 10SM FEW080 SCT250 11/04 A3006 RMK AO2 RAB43E50 SLP179 P0000 T01110044
Loading
Personal Weather Stations






























Interactive Weather Map New forecast layout! Learn more

10-Day Weather Forecast

Advertisements
Track Severe Weather on mobile